Time;durP1;ratioP1;P1;durP2;ratioP2;P2;SDS_P1;SDS_P2;PMS_P1;PMS_P2;Temp;Humidity;BMP_temperature;BMP_pressure;BME280_temperature;BME280_humidity;BME280_pressure;Samples;Min_cycle;Max_cycle;Signal;HPM_P1;HPM_P2
2023/05/12 00:02:16;;;;;;;4.53;4.13;;;;;;;-147.51;100.00;68818.25;5039184;28;20053;-61
2023/05/12 00:04:47;;;;;;;4.18;3.55;;;;;;;-147.51;100.00;68818.25;5035656;28;20498;-61
2023/05/12 00:07:16;;;;;;;5.57;4.57;;;;;;;-147.51;100.00;68818.25;5041214;28;20053;-60
2023/05/12 00:09:43;;;;;;;5.03;4.45;;;;;;;-147.51;100.00;68818.25;5045017;28;20049;-61
2023/05/12 00:12:11;;;;;;;4.72;4.25;;;;;;;-147.51;100.00;68818.25;5042538;28;20433;-60
2023/05/12 00:14:39;;;;;;;4.00;3.45;;;;;;;-147.51;100.00;68818.25;5036944;28;20502;-60
2023/05/12 00:17:08;;;;;;;4.05;3.65;;;;;;;-147.51;100.00;68818.25;5037970;28;20060;-61
2023/05/12 00:19:35;;;;;;;;;;;;;;;-147.51;100.00;68818.25;5034605;28;20054;-61
2023/05/12 00:22:02;;;;;;;6.10;3.72;;;;;;;-147.51;100.00;68818.25;5037106;28;19928;-60
2023/05/12 00:24:30;;;;;;;4.88;3.80;;;;;;;-147.51;100.00;68818.25;5038541;28;20478;-61
2023/05/12 00:26:57;;;;;;;3.67;3.28;;;;;;;-147.51;100.00;68818.25;5037566;28;20659;-61
2023/05/12 00:29:25;;;;;;;6.43;3.65;;;;;;;-147.51;100.00;68818.25;5037733;28;20044;-60
2023/05/12 00:31:52;;;;;;;4.32;3.90;;;;;;;-147.51;100.00;68818.25;5031344;28;20045;-60
2023/05/12 00:34:20;;;;;;;3.88;3.17;;;;;;;-147.51;100.00;68818.25;5041629;28;20419;-61
2023/05/12 00:36:52;;;;;;;3.93;3.33;;;;;;;-147.51;100.00;68818.25;5044324;28;20064;-60
2023/05/12 00:39:19;;;;;;;4.90;3.25;;;;;;;-147.51;100.00;68818.25;5041363;28;20487;-61
2023/05/12 00:41:48;;;;;;;4.80;4.00;;;;;;;-147.51;100.00;68818.25;5037868;28;20698;-61
2023/05/12 00:44:17;;;;;;;;;;;;;;;-147.51;100.00;68818.25;5034922;28;20057;-61
2023/05/12 00:46:44;;;;;;;5.63;4.20;;;;;;;-147.51;100.00;68818.25;5035717;28;19928;-61
2023/05/12 00:49:12;;;;;;;5.57;4.47;;;;;;;-147.51;100.00;68818.25;5036798;28;20410;-61
2023/05/12 00:51:41;;;;;;;5.63;4.57;;;;;;;-147.51;100.00;68818.25;5036398;28;20053;-61
2023/05/12 00:54:08;;;;;;;4.85;3.88;;;;;;;-147.51;100.00;68818.25;5035935;28;20056;-60
2023/05/12 00:56:39;;;;;;;5.30;4.32;;;;;;;-147.51;100.00;68818.25;5035109;28;20060;-61
2023/05/12 00:59:09;;;;;;;4.18;3.42;;;;;;;-147.51;100.00;68818.25;5037912;28;20056;-61
2023/05/12 01:01:37;;;;;;;5.00;3.72;;;;;;;-147.51;100.00;68818.25;5036295;28;20063;-61
2023/05/12 01:04:05;;;;;;;5.20;3.85;;;;;;;-147.51;100.00;68818.25;5039795;28;20395;-60
2023/05/12 01:06:37;;;;;;;4.63;4.10;;;;;;;-147.51;100.00;68818.25;5035543;28;20052;-61
2023/05/12 01:09:07;;;;;;;4.97;3.92;;;;;;;-147.51;100.00;68818.25;5045624;28;20410;-61
2023/05/12 01:11:34;;;;;;;4.50;3.97;;;;;;;-147.51;100.00;68818.25;5036288;28;20049;-61
2023/05/12 01:14:02;;;;;;;4.45;3.60;;;;;;;-147.51;100.00;68818.25;5038270;28;20049;-60
2023/05/12 01:16:36;;;;;;;4.95;3.67;;;;;;;-147.51;100.00;68818.25;5037986;28;20057;-61
2023/05/12 01:19:12;;;;;;;5.70;4.25;;;;;;;-147.51;100.00;68818.25;5038228;28;20071;-60
2023/05/12 01:21:39;;;;;;;5.55;4.50;;;;;;;-147.51;100.00;68818.25;5034278;28;20061;-61
2023/05/12 01:24:12;;;;;;;4.72;4.07;;;;;;;-147.51;100.00;68818.25;5037051;28;20087;-61
2023/05/12 01:26:40;;;;;;;5.35;4.15;;;;;;;-147.51;100.00;68818.25;5035610;28;20052;-60
2023/05/12 01:29:11;;;;;;;6.10;4.80;;;;;;;-147.51;100.00;68818.25;5033514;28;20049;-60
2023/05/12 01:31:38;;;;;;;5.65;4.35;;;;;;;-147.51;100.00;68818.25;5038430;28;20060;-60
2023/05/12 01:34:05;;;;;;;7.95;4.72;;;;;;;-147.51;100.00;68818.25;5034378;28;20045;-61
2023/05/12 01:36:33;;;;;;;4.88;3.83;;;;;;;-147.51;100.00;68818.25;5038366;28;20057;-60
2023/05/12 01:39:00;;;;;;;5.13;4.32;;;;;;;-147.51;100.00;68818.25;5035874;28;20049;-60
2023/05/12 01:41:27;;;;;;;6.05;4.20;;;;;;;-147.51;100.00;68818.25;5038235;28;20155;-60
2023/05/12 01:43:56;;;;;;;4.22;3.72;;;;;;;-147.51;100.00;68818.25;5040972;28;20057;-61
2023/05/12 01:46:23;;;;;;;4.97;3.95;;;;;;;-147.51;100.00;68818.25;5032754;28;20402;-60
2023/05/12 01:48:50;;;;;;;6.43;4.90;;;;;;;-147.51;100.00;68818.25;5048025;28;20057;-60
2023/05/12 01:51:17;;;;;;;6.82;4.22;;;;;;;-147.51;100.00;68818.25;5042793;28;20060;-61
2023/05/12 01:53:45;;;;;;;5.30;4.43;;;;;;;-147.51;100.00;68818.25;5034720;28;20501;-60
2023/05/12 01:56:12;;;;;;;6.97;4.15;;;;;;;-147.51;100.00;68818.25;5045726;28;20056;-61
2023/05/12 01:58:39;;;;;;;5.90;4.45;;;;;;;-147.51;100.00;68818.25;5040764;28;20061;-61
2023/05/12 02:01:08;;;;;;;5.47;4.47;;;;;;;-147.51;100.00;68818.25;5045599;28;20049;-61
2023/05/12 02:03:36;;;;;;;6.18;4.57;;;;;;;-147.51;100.00;68818.25;5033747;28;20064;-61
2023/05/12 02:06:04;;;;;;;5.57;4.45;;;;;;;-147.51;100.00;68818.25;5039015;28;20046;-60
2023/05/12 02:08:31;;;;;;;5.22;3.70;;;;;;;-147.51;100.00;68818.25;5038026;28;20056;-60
2023/05/12 02:11:05;;;;;;;5.55;4.28;;;;;;;-147.51;100.00;68818.25;5035990;28;20077;-60
2023/05/12 02:13:33;;;;;;;4.30;3.80;;;;;;;-147.51;100.00;68818.25;5039559;28;20065;-61
2023/05/12 02:16:00;;;;;;;5.85;3.90;;;;;;;-147.51;100.00;68818.25;5038022;28;20056;-60
2023/05/12 02:18:29;;;;;;;6.07;3.50;;;;;;;-147.51;100.00;68818.25;5042169;28;20052;-60
2023/05/12 02:20:56;;;;;;;4.75;3.15;;;;;;;-147.51;100.00;68818.25;5051225;28;20061;-61
2023/05/12 02:23:23;;;;;;;4.78;3.08;;;;;;;-147.51;100.00;68818.25;5043925;28;20064;-61
2023/05/12 02:25:51;;;;;;;5.55;3.90;;;;;;;-147.51;100.00;68818.25;5039696;28;20434;-60
2023/05/12 02:28:18;;;;;;;4.10;3.35;;;;;;;-147.51;100.00;68818.25;5052858;28;20063;-61
2023/05/12 02:30:47;;;;;;;6.45;3.75;;;;;;;-147.51;100.00;68818.25;5038467;28;20045;-60
2023/05/12 02:33:14;;;;;;;3.88;3.47;;;;;;;-147.51;100.00;68818.25;5040321;28;20049;-60
2023/05/12 02:35:43;;;;;;;5.20;3.30;;;;;;;-147.51;100.00;68818.25;5040212;28;20045;-60
2023/05/12 02:38:11;;;;;;;5.38;3.35;;;;;;;-147.51;100.00;68818.25;5039942;28;21031;-60
2023/05/12 02:40:38;;;;;;;3.22;2.92;;;;;;;-147.51;100.00;68818.25;5042585;28;20057;-61
2023/05/12 02:43:05;;;;;;;3.95;3.53;;;;;;;-147.51;100.00;68818.25;5047601;28;20072;-60
2023/05/12 02:45:33;;;;;;;3.33;2.88;;;;;;;-147.51;100.00;68818.25;5045687;28;20060;-60
2023/05/12 02:48:00;;;;;;;5.07;3.47;;;;;;;-147.51;100.00;68818.25;5041814;28;20053;-60
2023/05/12 02:50:28;;;;;;;6.32;3.40;;;;;;;-147.51;100.00;68818.25;5048318;28;20049;-60
2023/05/12 02:52:56;;;;;;;4.20;3.60;;;;;;;-147.51;100.00;68818.25;5046386;28;20045;-60
2023/05/12 02:55:23;;;;;;;4.10;3.22;;;;;;;-147.51;100.00;68818.25;5038647;28;20045;-60
2023/05/12 02:57:51;;;;;;;3.65;3.08;;;;;;;-147.51;100.00;68818.25;5039716;28;20128;-60
2023/05/12 03:00:18;;;;;;;3.58;2.97;;;;;;;-147.51;100.00;68818.25;5037193;28;20045;-60
2023/05/12 03:02:46;;;;;;;4.30;3.35;;;;;;;-147.51;100.00;68818.25;5035417;28;20049;-60
2023/05/12 03:05:13;;;;;;;3.65;2.72;;;;;;;-147.51;100.00;68818.25;5045862;28;20512;-60
2023/05/12 03:07:40;;;;;;;5.60;3.47;;;;;;;-147.51;100.00;68818.25;5047544;28;20060;-61
2023/05/12 03:10:10;;;;;;;3.40;2.55;;;;;;;-147.51;100.00;68818.25;5036839;28;20409;-60
2023/05/12 03:12:37;;;;;;;;;;;;;;;-147.51;100.00;68818.25;5041865;28;20640;-60
2023/05/12 03:15:05;;;;;;;3.65;3.08;;;;;;;-147.51;100.00;68818.25;5043375;28;19921;-60
2023/05/12 03:17:32;;;;;;;4.80;2.88;;;;;;;-147.51;100.00;68818.25;5047328;28;20206;-61
2023/05/12 03:20:00;;;;;;;5.07;3.25;;;;;;;-147.51;100.00;68818.25;5050560;28;20056;-60
2023/05/12 03:22:27;;;;;;;4.55;3.33;;;;;;;-147.51;100.00;68818.25;5039534;28;20068;-60
2023/05/12 03:24:54;;;;;;;3.28;2.85;;;;;;;-147.51;100.00;68818.25;5037112;28;20057;-60
2023/05/12 03:27:23;;;;;;;3.70;3.03;;;;;;;-147.51;100.00;68818.25;5041311;28;20048;-60
2023/05/12 03:29:50;;;;;;;4.22;3.00;;;;;;;-147.51;100.00;68818.25;5039428;28;20060;-60
2023/05/12 03:32:18;;;;;;;3.58;3.15;;;;;;;-147.51;100.00;68818.25;5043644;28;20406;-60
2023/05/12 03:34:45;;;;;;;3.78;3.00;;;;;;;-147.51;100.00;68818.25;5037403;28;20064;-60
2023/05/12 03:37:12;;;;;;;3.58;3.17;;;;;;;-147.51;100.00;68818.25;5036261;28;20078;-61
2023/05/12 03:39:39;;;;;;;3.88;2.90;;;;;;;-147.51;100.00;68818.25;5038852;28;20049;-60
2023/05/12 03:42:07;;;;;;;3.92;2.88;;;;;;;-147.51;100.00;68818.25;5038612;28;20049;-60
2023/05/12 03:44:35;;;;;;;3.97;3.20;;;;;;;-147.51;100.00;68818.25;5038329;28;20049;-60
2023/05/12 03:47:03;;;;;;;5.03;2.75;;;;;;;-147.51;100.00;68818.25;5041638;28;20053;-59
2023/05/12 03:49:30;;;;;;;3.97;2.90;;;;;;;-147.51;100.00;68818.25;5040769;28;20491;-60
2023/05/12 03:51:57;;;;;;;3.65;3.17;;;;;;;-147.51;100.00;68818.25;5034855;28;20050;-60
2023/05/12 03:54:24;;;;;;;5.55;3.53;;;;;;;-147.51;100.00;68818.25;5042342;28;20045;-60
2023/05/12 03:56:52;;;;;;;6.03;3.67;;;;;;;-147.51;100.00;68818.25;5046865;28;20045;-59
2023/05/12 03:59:20;;;;;;;5.20;3.08;;;;;;;-147.51;100.00;68818.25;5041237;28;20072;-59
2023/05/12 04:01:49;;;;;;;2.95;2.60;;;;;;;-147.51;100.00;68818.25;5048161;28;20048;-60
2023/05/12 04:04:16;;;;;;;5.30;3.47;;;;;;;-147.51;100.00;68818.25;5047573;28;20052;-60
2023/05/12 04:06:43;;;;;;;5.22;2.97;;;;;;;-147.51;100.00;68818.25;5032955;28;20071;-60
2023/05/12 04:09:11;;;;;;;4.35;2.67;;;;;;;-147.51;100.00;68818.25;5038436;28;20060;-60
2023/05/12 04:11:38;;;;;;;3.92;3.20;;;;;;;-147.51;100.00;68818.25;5040591;28;20053;-59
2023/05/12 04:14:05;;;;;;;3.78;3.38;;;;;;;-147.51;100.00;68818.25;5044457;28;20525;-60
2023/05/12 04:16:34;;;;;;;4.75;2.90;;;;;;;-147.51;100.00;68818.25;5053196;28;20052;-60
2023/05/12 04:19:03;;;;;;;4.68;3.10;;;;;;;-147.51;100.00;68818.25;5035862;28;20056;-60
2023/05/12 04:21:31;;;;;;;4.03;3.10;;;;;;;-147.51;100.00;68818.25;5035008;28;20052;-60
2023/05/12 04:23:59;;;;;;;4.85;3.70;;;;;;;-147.51;100.00;68818.25;5039771;28;20048;-61
2023/05/12 04:26:26;;;;;;;3.95;3.28;;;;;;;-147.51;100.00;68818.25;5039250;28;20057;-59
2023/05/12 04:28:54;;;;;;;5.53;3.28;;;;;;;-147.51;100.00;68818.25;5035132;28;20057;-59
2023/05/12 04:31:21;;;;;;;4.03;3.50;;;;;;;-147.51;100.00;68818.25;5038022;28;20233;-60
2023/05/12 04:33:48;;;;;;;4.10;3.53;;;;;;;-147.51;100.00;68818.25;5048116;28;20060;-60
2023/05/12 04:36:17;;;;;;;6.40;4.57;;;;;;;-147.51;100.00;68818.25;5040462;28;20532;-59
2023/05/12 04:38:44;;;;;;;5.00;3.78;;;;;;;-147.51;100.00;68818.25;5038417;28;20056;-59
2023/05/12 04:41:11;;;;;;;4.20;3.72;;;;;;;-147.51;100.00;68818.25;5038535;28;20060;-60
2023/05/12 04:43:39;;;;;;;3.95;3.55;;;;;;;-147.51;100.00;68818.25;5038046;28;20613;-60
2023/05/12 04:46:06;;;;;;;6.90;4.78;;;;;;;-147.51;100.00;68818.25;5034697;28;20049;-60
2023/05/12 04:48:33;;;;;;;5.28;3.72;;;;;;;-147.51;100.00;68818.25;5039572;28;20049;-60
2023/05/12 04:51:01;;;;;;;5.45;3.78;;;;;;;-147.51;100.00;68818.25;5037262;28;20057;-60
2023/05/12 04:53:33;;;;;;;5.97;3.83;;;;;;;-147.51;100.00;68818.25;5040828;28;20061;-60
2023/05/12 04:56:00;;;;;;;4.82;3.22;;;;;;;-147.51;100.00;68818.25;5038286;28;20052;-60
2023/05/12 04:58:27;;;;;;;4.22;3.83;;;;;;;-147.51;100.00;68818.25;5037290;28;20429;-60
2023/05/12 05:00:55;;;;;;;5.05;3.47;;;;;;;-147.51;100.00;68818.25;5033309;28;20432;-60
2023/05/12 05:03:22;;;;;;;4.15;3.35;;;;;;;-147.51;100.00;68818.25;5039940;28;20426;-60
2023/05/12 05:05:49;;;;;;;6.30;3.67;;;;;;;-147.51;100.00;68818.25;5036643;28;20715;-60
2023/05/12 05:08:17;;;;;;;4.03;3.38;;;;;;;-147.51;100.00;68818.25;5038114;28;20060;-60
2023/05/12 05:10:45;;;;;;;4.20;3.40;;;;;;;-147.51;100.00;68818.25;5037966;28;20525;-61
2023/05/12 05:13:15;;;;;;;5.75;3.88;;;;;;;-147.51;100.00;68818.25;5037206;28;20505;-60
2023/05/12 05:15:49;;;;;;;3.70;3.33;;;;;;;-147.51;100.00;68818.25;5036496;28;20422;-60
2023/05/12 05:18:17;;;;;;;3.50;3.05;;;;;;;-147.51;100.00;68818.25;5037570;28;20727;-60
2023/05/12 05:20:44;;;;;;;7.22;3.60;;;;;;;-147.51;100.00;68818.25;5037810;28;20049;-61
2023/05/12 05:23:12;;;;;;;4.45;2.63;;;;;;;-147.51;100.00;68818.25;5038889;28;20058;-60
2023/05/12 05:25:39;;;;;;;3.22;2.90;;;;;;;-147.51;100.00;68818.25;5034633;28;20053;-60
2023/05/12 05:28:08;;;;;;;4.90;3.00;;;;;;;-147.51;100.00;68818.25;5039470;28;20049;-60
2023/05/12 05:30:35;;;;;;;3.57;2.87;;;;;;;-147.51;100.00;68818.25;5044526;28;20529;-60
2023/05/12 05:33:02;;;;;;;4.32;3.15;;;;;;;-147.51;100.00;68818.25;5041055;28;20498;-60
2023/05/12 05:35:30;;;;;;;5.35;2.70;;;;;;;-147.51;100.00;68818.25;5034829;28;20064;-60
2023/05/12 05:37:57;;;;;;;4.55;2.85;;;;;;;-147.51;100.00;68818.25;5036559;28;20051;-60
2023/05/12 05:40:25;;;;;;;4.13;2.80;;;;;;;-147.51;100.00;68818.25;5037143;28;20053;-60
2023/05/12 05:42:54;;;;;;;3.50;2.80;;;;;;;-147.51;100.00;68818.25;5036922;28;20049;-61
2023/05/12 05:45:22;;;;;;;4.60;3.20;;;;;;;-147.51;100.00;68818.25;5034468;28;20065;-60
2023/05/12 05:47:51;;;;;;;3.42;2.97;;;;;;;-147.51;100.00;68818.25;5038385;28;20045;-60
2023/05/12 05:50:24;;;;;;;3.15;2.75;;;;;;;-147.51;100.00;68818.25;5036869;28;20049;-60
2023/05/12 05:52:51;;;;;;;5.57;2.58;;;;;;;-147.51;100.00;68818.25;5039325;28;20084;-60
2023/05/12 05:55:18;;;;;;;4.82;2.85;;;;;;;-147.51;100.00;68818.25;5054252;28;20387;-60
2023/05/12 05:57:46;;;;;;;3.42;3.13;;;;;;;-147.51;100.00;68818.25;5040215;28;20052;-60
2023/05/12 06:00:14;;;;;;;4.65;2.88;;;;;;;-147.51;100.00;68818.25;5043790;28;20486;-60
2023/05/12 06:02:43;;;;;;;4.07;2.88;;;;;;;-147.51;100.00;68818.25;5047427;28;20410;-60
2023/05/12 06:05:11;;;;;;;3.83;3.23;;;;;;;-147.51;100.00;68818.25;5039991;28;20062;-60
2023/05/12 06:07:38;;;;;;;4.82;2.92;;;;;;;-147.51;100.00;68818.25;5037583;28;20483;-60
2023/05/12 06:10:07;;;;;;;3.58;3.05;;;;;;;-147.51;100.00;68818.25;5047264;28;20387;-60
2023/05/12 06:12:34;;;;;;;3.10;2.70;;;;;;;-147.51;100.00;68818.25;5038484;28;20057;-60
2023/05/12 06:15:01;;;;;;;4.97;3.35;;;;;;;-147.51;100.00;68818.25;5055333;28;20057;-60
2023/05/12 06:17:29;;;;;;;4.03;3.00;;;;;;;-147.51;100.00;68818.25;5050350;28;20053;-60
2023/05/12 06:19:57;;;;;;;4.55;2.80;;;;;;;-147.51;100.00;68818.25;5043618;28;20053;-60
2023/05/12 06:22:24;;;;;;;4.25;2.80;;;;;;;-147.51;100.00;68818.25;5038094;28;20048;-60
2023/05/12 06:24:52;;;;;;;5.93;3.13;;;;;;;-147.51;100.00;68818.25;5046640;28;20422;-60
2023/05/12 06:27:19;;;;;;;4.22;3.28;;;;;;;-147.51;100.00;68818.25;5037984;28;20049;-61
2023/05/12 06:29:46;;;;;;;4.05;3.15;;;;;;;-147.51;100.00;68818.25;5038345;28;20059;-60
2023/05/12 06:32:14;;;;;;;7.18;3.05;;;;;;;-147.51;100.00;68818.25;5043681;28;20422;-60
2023/05/12 06:34:41;;;;;;;4.25;2.92;;;;;;;-147.51;100.00;68818.25;5041860;28;20045;-60
2023/05/12 06:37:09;;;;;;;4.85;3.22;;;;;;;-147.51;100.00;68818.25;5041027;28;20510;-59
2023/05/12 06:39:37;;;;;;;5.17;3.50;;;;;;;-147.51;100.00;68818.25;5038303;28;20397;-60
2023/05/12 06:42:04;;;;;;;4.40;3.85;;;;;;;-147.51;100.00;68818.25;5048813;28;20061;-60
2023/05/12 06:44:32;;;;;;;6.13;3.70;;;;;;;-147.51;100.00;68818.25;5039542;28;20057;-60
2023/05/12 06:46:59;;;;;;;5.25;3.72;;;;;;;-147.51;100.00;68818.25;5047606;28;20053;-60
2023/05/12 06:49:26;;;;;;;6.38;4.03;;;;;;;-147.51;100.00;68818.25;5037883;28;20048;-60
2023/05/12 06:51:54;;;;;;;4.30;3.35;;;;;;;-147.51;100.00;68818.25;5036479;28;20057;-60
2023/05/12 06:54:22;;;;;;;5.00;3.28;;;;;;;-147.51;100.00;68818.25;5036968;28;20179;-60
2023/05/12 06:56:50;;;;;;;4.97;3.33;;;;;;;-147.51;100.00;68818.25;5038385;28;20056;-60
2023/05/12 06:59:17;;;;;;;3.67;3.03;;;;;;;-147.51;100.00;68818.25;5046008;28;20056;-60
2023/05/12 07:01:44;;;;;;;3.67;3.03;;;;;;;-147.51;100.00;68818.25;5044844;28;20057;-60
2023/05/12 07:04:11;;;;;;;5.22;3.28;;;;;;;-147.51;100.00;68818.25;5037623;28;20049;-60
2023/05/12 07:06:39;;;;;;;5.85;3.10;;;;;;;-147.51;100.00;68818.25;5038684;28;20375;-60
2023/05/12 07:09:06;;;;;;;4.72;3.15;;;;;;;-147.51;100.00;68818.25;5046675;28;20045;-60
2023/05/12 07:11:35;;;;;;;6.88;3.05;;;;;;;-147.51;100.00;68818.25;5042248;28;20079;-60
2023/05/12 07:14:03;;;;;;;3.33;2.42;;;;;;;-147.51;100.00;68818.25;5042107;28;20045;-40
2023/05/12 07:16:33;;;;;;;5.45;2.60;;;;;;;-147.51;100.00;68818.25;5048636;28;20525;-39
2023/05/12 07:19:00;;;;;;;3.25;2.55;;;;;;;-147.51;100.00;68818.25;5038648;28;20052;-46
2023/05/12 07:21:28;;;;;;;5.00;3.10;;;;;;;-147.51;100.00;68818.25;5044358;28;20057;-46
2023/05/12 07:23:55;;;;;;;4.35;2.85;;;;;;;-147.51;100.00;68818.25;5038432;28;20044;-39
2023/05/12 07:26:23;;;;;;;3.78;2.65;;;;;;;-147.51;100.00;68818.25;5038945;28;20049;-40
2023/05/12 07:28:52;;;;;;;3.17;2.30;;;;;;;-147.51;100.00;68818.25;5038771;28;20049;-39
2023/05/12 07:31:20;;;;;;;4.03;3.10;;;;;;;-147.51;100.00;68818.25;5036614;28;20045;-39
2023/05/12 07:33:47;;;;;;;3.50;3.10;;;;;;;-147.51;100.00;68818.25;5039182;28;20053;-44
2023/05/12 07:36:15;;;;;;;2.95;2.65;;;;;;;-147.51;100.00;68818.25;5038782;28;20252;-40
2023/05/12 07:38:43;;;;;;;4.25;2.55;;;;;;;-147.51;100.00;68818.25;5038659;28;20052;-47
2023/05/12 07:41:10;;;;;;;3.95;2.85;;;;;;;-147.51;100.00;68818.25;5038543;28;20483;-47
2023/05/12 07:43:38;;;;;;;3.17;2.50;;;;;;;-147.51;100.00;68818.25;5035071;28;20065;-47
2023/05/12 07:46:07;;;;;;;3.95;2.70;;;;;;;-147.51;100.00;68818.25;5041046;28;20506;-47
2023/05/12 07:48:38;;;;;;;3.25;2.42;;;;;;;-147.51;100.00;68818.25;5038494;28;20044;-40
2023/05/12 07:51:05;;;;;;;3.03;2.17;;;;;;;-147.51;100.00;68818.25;5034118;28;20053;-40
2023/05/12 07:53:33;;;;;;;6.10;2.88;;;;;;;-147.51;100.00;68818.25;5036343;28;20064;-40
2023/05/12 07:56:01;;;;;;;4.43;2.38;;;;;;;-147.51;100.00;68818.25;5038203;28;20387;-40
2023/05/12 07:58:28;;;;;;;3.25;2.40;;;;;;;-147.51;100.00;68818.25;5040161;28;20049;-40
2023/05/12 08:00:57;;;;;;;3.33;2.47;;;;;;;-147.51;100.00;68818.25;5040299;28;20060;-40
2023/05/12 08:03:26;;;;;;;4.80;2.35;;;;;;;-147.51;100.00;68818.25;5051749;28;20514;-39
2023/05/12 08:05:53;;;;;;;2.78;2.47;;;;;;;-147.51;100.00;68818.25;5043085;28;20512;-48
2023/05/12 08:08:21;;;;;;;3.13;2.28;;;;;;;-147.51;100.00;68818.25;5042535;28;20497;-47
2023/05/12 08:10:48;;;;;;;4.85;2.50;;;;;;;-147.51;100.00;68818.25;5046782;28;20049;-63
2023/05/12 08:13:15;;;;;;;2.95;2.33;;;;;;;-147.51;100.00;68818.25;5042366;28;20057;-63
2023/05/12 08:15:42;;;;;;;3.88;2.13;;;;;;;-147.51;100.00;68818.25;5043611;28;20049;-63
2023/05/12 08:18:10;;;;;;;3.58;2.30;;;;;;;-147.51;100.00;68818.25;5046865;28;20068;-63
2023/05/12 08:20:38;;;;;;;2.58;1.95;;;;;;;-147.51;100.00;68818.25;5042356;28;20099;-63
2023/05/12 08:23:05;;;;;;;4.60;2.10;;;;;;;-147.51;100.00;68818.25;5043573;28;20060;-63
2023/05/12 08:25:33;;;;;;;2.85;1.95;;;;;;;-147.51;100.00;68818.25;5040247;28;20053;-63
2023/05/12 08:28:01;;;;;;;4.43;2.40;;;;;;;-147.51;100.00;68818.25;5048574;28;20055;-62
2023/05/12 08:30:28;;;;;;;3.88;2.30;;;;;;;-147.51;100.00;68818.25;5044029;28;20061;-63
2023/05/12 08:32:56;;;;;;;4.95;2.30;;;;;;;-147.51;100.00;68818.25;5034227;28;20052;-63
2023/05/12 08:35:24;;;;;;;4.20;2.28;;;;;;;-147.51;100.00;68818.25;5044481;28;20049;-62
2023/05/12 08:37:53;;;;;;;5.03;2.17;;;;;;;-147.51;100.00;68818.25;5036516;28;20067;-59
2023/05/12 08:40:22;;;;;;;5.63;2.20;;;;;;;-147.51;100.00;68818.25;5043846;28;20045;-59
2023/05/12 08:42:57;;;;;;;3.83;2.20;;;;;;;-147.51;100.00;68818.25;5039760;28;20053;-59
2023/05/12 08:45:24;;;;;;;2.38;2.00;;;;;;;-147.51;100.00;68818.25;5045674;28;20438;-59
2023/05/12 08:47:53;;;;;;;2.80;2.00;;;;;;;-147.51;100.00;68818.25;5052790;28;20049;-59
2023/05/12 08:50:22;;;;;;;3.35;1.83;;;;;;;-147.51;100.00;68818.25;5041981;28;20485;-59
2023/05/12 08:52:49;;;;;;;2.55;2.05;;;;;;;-147.51;100.00;68818.25;5032803;28;20053;-59
2023/05/12 08:55:20;;;;;;;2.55;1.90;;;;;;;-147.51;100.00;68818.25;5033007;28;20060;-59
2023/05/12 08:57:48;;;;;;;2.40;1.95;;;;;;;-147.51;100.00;68818.25;5046791;28;20152;-61
2023/05/12 09:00:17;;;;;;;3.00;1.88;;;;;;;-147.51;100.00;68818.25;5052785;28;20075;-59
2023/05/12 09:02:45;;;;;;;4.07;1.85;;;;;;;-147.51;100.00;68818.25;5052535;28;20057;-59
2023/05/12 09:05:12;;;;;;;2.25;1.83;;;;;;;-147.51;100.00;68818.25;5045280;28;20413;-59
2023/05/12 09:07:43;;;;;;;2.85;1.90;;;;;;;-147.51;100.00;68818.25;5045436;28;20493;-59
2023/05/12 09:10:16;;;;;;;2.20;1.90;;;;;;;-147.51;100.00;68818.25;5052656;28;20049;-59
2023/05/12 09:12:46;;;;;;;3.05;1.90;;;;;;;-147.51;100.00;68818.25;5038291;28;20387;-59
2023/05/12 09:15:22;;;;;;;2.38;1.80;;;;;;;-147.51;100.00;68818.25;5041546;28;20049;-59
2023/05/12 09:17:49;;;;;;;2.60;1.77;;;;;;;-147.51;100.00;68818.25;5039630;28;20053;-59
2023/05/12 09:20:17;;;;;;;2.63;1.70;;;;;;;-147.51;100.00;68818.25;5040693;28;20425;-59
2023/05/12 09:22:45;;;;;;;3.47;1.80;;;;;;;-147.51;100.00;68818.25;5038172;28;20057;-59
2023/05/12 09:25:17;;;;;;;2.50;1.92;;;;;;;-147.51;100.00;68818.25;5036595;28;20054;-59
2023/05/12 09:27:46;;;;;;;4.10;1.80;;;;;;;-147.51;100.00;68818.25;5034941;28;20061;-59
2023/05/12 09:30:14;;;;;;;;;;;;;;;-147.51;100.00;68818.25;5037024;28;20120;-59
2023/05/12 09:32:41;;;;;;;2.60;1.80;;;;;;;-147.51;100.00;68818.25;5037812;28;20277;-59
2023/05/12 09:35:10;;;;;;;5.00;2.30;;;;;;;-147.51;100.00;68818.25;5036941;28;20050;-59
2023/05/12 09:37:38;;;;;;;;;;;;;;;-147.51;100.00;68818.25;5037311;28;20049;-62
2023/05/12 09:40:07;;;;;;;5.55;2.40;;;;;;;-147.51;100.00;68818.25;5036188;28;19989;-63
2023/05/12 09:42:35;;;;;;;3.00;1.75;;;;;;;-147.51;100.00;68818.25;5036237;28;20076;-62
2023/05/12 09:45:05;;;;;;;2.65;2.00;;;;;;;-147.51;100.00;68818.25;5036183;28;20060;-62
2023/05/12 09:47:36;;;;;;;3.78;1.80;;;;;;;-147.51;100.00;68818.25;5036461;28;20049;-62
2023/05/12 09:50:05;;;;;;;2.15;1.80;;;;;;;-147.51;100.00;68818.25;5037974;28;20060;-62
2023/05/12 09:52:37;;;;;;;3.60;1.90;;;;;;;-147.51;100.00;68818.25;5036011;28;20053;-62
2023/05/12 09:55:08;;;;;;;4.25;2.00;;;;;;;-147.51;100.00;68818.25;5036531;28;20058;-60
2023/05/12 09:57:39;;;;;;;2.15;1.63;;;;;;;-147.51;100.00;68818.25;5036256;28;20061;-59
2023/05/12 10:00:10;;;;;;;2.85;1.63;;;;;;;-147.51;100.00;68818.25;5035879;28;20124;-59
2023/05/12 10:02:41;;;;;;;2.30;1.75;;;;;;;-147.51;100.00;68818.25;5043666;28;20057;-59
2023/05/12 10:05:15;;;;;;;2.85;1.70;;;;;;;-147.51;100.00;68818.25;5052038;28;20056;-59
2023/05/12 10:07:44;;;;;;;3.08;1.92;;;;;;;-147.51;100.00;68818.25;5056074;28;20069;-59
2023/05/12 10:10:14;;;;;;;3.80;1.90;;;;;;;-147.51;100.00;68818.25;5055612;28;20064;-59
2023/05/12 10:12:42;;;;;;;3.28;1.90;;;;;;;-147.51;100.00;68818.25;5055553;28;20049;-59
2023/05/12 10:15:12;;;;;;;2.20;1.73;;;;;;;-147.51;100.00;68818.25;5055652;28;20053;-59
2023/05/12 10:17:41;;;;;;;2.53;1.75;;;;;;;-147.51;100.00;68818.25;5055251;28;20061;-58
2023/05/12 10:20:09;;;;;;;3.53;1.80;;;;;;;-147.51;100.00;68818.25;5051715;28;20482;-59
2023/05/12 10:22:38;;;;;;;;;;;;;;;-147.51;100.00;68818.25;5056215;28;20402;-59
2023/05/12 10:25:07;;;;;;;5.95;2.10;;;;;;;-147.51;100.00;68818.25;5053126;28;19925;-59
2023/05/12 10:27:35;;;;;;;3.22;2.00;;;;;;;-147.51;100.00;68818.25;5040147;28;20057;-59
2023/05/12 10:30:03;;;;;;;2.22;1.85;;;;;;;-147.51;100.00;68818.25;5053937;28;20071;-59
2023/05/12 10:32:32;;;;;;;;;;;;;;;-147.51;100.00;68818.25;5055758;28;20056;-59
2023/05/12 10:35:07;;;;;;;2.38;1.75;;;;;;;-147.51;100.00;68818.25;5051771;28;19921;-59
2023/05/12 10:37:36;;;;;;;2.40;1.80;;;;;;;-147.51;100.00;68818.25;5055023;28;20390;-59
2023/05/12 10:40:05;;;;;;;3.38;1.98;;;;;;;-147.51;100.00;68818.25;5054737;28;20375;-60
2023/05/12 10:42:38;;;;;;;3.92;1.92;;;;;;;-147.51;100.00;68818.25;5049305;28;20061;-60
2023/05/12 10:45:16;;;;;;;6.32;2.53;;;;;;;-147.51;100.00;68818.25;5055248;28;20057;-57
2023/05/12 10:47:45;;;;;;;2.70;2.10;;;;;;;-147.51;100.00;68818.25;5055338;28;20060;-58
2023/05/12 10:50:13;;;;;;;2.75;2.47;;;;;;;-147.51;100.00;68818.25;5049854;28;20049;-58
2023/05/12 10:52:41;;;;;;;2.85;2.17;;;;;;;-147.51;100.00;68818.25;5054837;28;20049;-58
2023/05/12 10:55:13;;;;;;;2.90;2.20;;;;;;;-147.51;100.00;68818.25;5054709;28;20048;-57
2023/05/12 10:57:50;;;;;;;2.83;2.00;;;;;;;-147.51;100.00;68818.25;5054632;28;20053;-59
2023/05/12 11:00:24;;;;;;;2.33;2.10;;;;;;;-147.51;100.00;68818.25;5054965;28;20056;-59
2023/05/12 11:02:53;;;;;;;3.70;2.25;;;;;;;-147.51;100.00;68818.25;5054837;28;20472;-59
2023/05/12 11:05:20;;;;;;;3.42;2.20;;;;;;;-147.51;100.00;68818.25;5047573;28;20049;-59
2023/05/12 11:07:48;;;;;;;4.15;2.35;;;;;;;-147.51;100.00;68818.25;5034701;28;20053;-59
2023/05/12 11:10:16;;;;;;;;;;;;;;;-147.51;100.00;68818.25;5035337;28;20049;-59
2023/05/12 11:12:44;;;;;;;2.65;2.33;;;;;;;-147.51;100.00;68818.25;5034605;28;20353;-59
2023/05/12 11:15:12;;;;;;;3.67;2.20;;;;;;;-147.51;100.00;68818.25;5035178;28;20056;-59
2023/05/12 11:17:40;;;;;;;5.00;2.20;;;;;;;-147.51;100.00;68818.25;5034233;28;20057;-58